createdAt,value
2022-11-09T00:00:29.758Z,995.8
2022-11-09T00:01:29.749Z,995.71
2022-11-09T00:02:29.739Z,995.73
2022-11-09T00:03:29.729Z,995.75
2022-11-09T00:04:29.722Z,995.79
2022-11-09T00:05:29.704Z,995.78
2022-11-09T00:06:29.693Z,995.83
2022-11-09T00:07:29.687Z,995.81
2022-11-09T00:08:29.680Z,995.77
2022-11-09T00:09:29.661Z,995.77
2022-11-09T00:10:29.654Z,995.78
2022-11-09T00:11:29.644Z,995.75
2022-11-09T00:12:29.630Z,995.73
2022-11-09T00:13:29.621Z,995.69
2022-11-09T00:14:29.615Z,995.65
2022-11-09T00:15:29.598Z,995.65
2022-11-09T00:16:29.593Z,995.68
2022-11-09T00:17:29.583Z,995.67
2022-11-09T00:18:29.568Z,995.64
2022-11-09T00:19:29.556Z,995.68
2022-11-09T00:20:29.554Z,995.72
2022-11-09T00:21:29.545Z,995.75
2022-11-09T00:22:29.540Z,995.77
2022-11-09T00:23:29.521Z,995.71
2022-11-09T00:24:29.508Z,995.71
2022-11-09T00:25:29.508Z,995.68
2022-11-09T00:26:29.485Z,995.72
2022-11-09T00:27:29.478Z,995.67
2022-11-09T00:28:29.469Z,995.74
2022-11-09T00:29:29.457Z,995.69
2022-11-09T00:30:29.446Z,995.66
2022-11-09T00:31:29.463Z,995.65
2022-11-09T00:32:29.423Z,995.67
2022-11-09T00:33:29.418Z,995.65
2022-11-09T00:34:29.407Z,995.61
2022-11-09T00:35:29.392Z,995.7
2022-11-09T00:36:29.383Z,995.64
2022-11-09T00:37:29.375Z,995.61
2022-11-09T00:38:29.360Z,995.63
2022-11-09T00:39:29.355Z,995.64
2022-11-09T00:40:29.346Z,995.61
2022-11-09T00:41:29.336Z,995.55
2022-11-09T00:42:29.323Z,995.65
2022-11-09T00:43:29.309Z,995.61
2022-11-09T00:44:29.299Z,995.57
2022-11-09T00:45:29.297Z,995.57
2022-11-09T00:46:29.278Z,995.5
2022-11-09T00:47:29.276Z,995.55
2022-11-09T00:48:29.272Z,995.56
2022-11-09T00:49:29.263Z,995.58
2022-11-09T00:50:29.240Z,995.6
2022-11-09T00:51:29.236Z,995.59
2022-11-09T00:52:29.220Z,995.6
2022-11-09T00:53:29.215Z,995.57
2022-11-09T00:54:29.205Z,995.6
2022-11-09T00:55:29.191Z,995.6
2022-11-09T00:56:29.175Z,995.64
2022-11-09T00:57:29.184Z,995.59
2022-11-09T00:58:29.160Z,995.56
2022-11-09T00:59:29.147Z,995.62
2022-11-09T01:00:29.149Z,995.53
2022-11-09T01:01:29.125Z,995.47
2022-11-09T01:02:29.117Z,995.46
2022-11-09T01:03:29.104Z,995.48
2022-11-09T01:04:29.098Z,995.52
2022-11-09T01:05:29.082Z,995.54
2022-11-09T01:06:29.071Z,995.58
2022-11-09T01:07:29.061Z,995.63
2022-11-09T01:08:29.058Z,995.61
2022-11-09T01:09:29.052Z,995.61
2022-11-09T01:10:29.032Z,995.59
2022-11-09T01:11:29.019Z,995.59
2022-11-09T01:12:29.009Z,995.6
2022-11-09T01:13:28.996Z,995.65
2022-11-09T01:14:28.987Z,995.6
2022-11-09T01:15:28.980Z,995.59
2022-11-09T01:16:28.967Z,995.59
2022-11-09T01:17:28.965Z,995.61
2022-11-09T01:18:28.946Z,995.55
2022-11-09T01:19:28.938Z,995.58
2022-11-09T01:20:28.928Z,995.62
2022-11-09T01:21:28.933Z,995.57
2022-11-09T01:22:28.935Z,995.62
2022-11-09T01:23:28.898Z,995.64
2022-11-09T01:24:28.885Z,995.63
2022-11-09T01:25:28.879Z,995.66
2022-11-09T01:26:28.868Z,995.69
2022-11-09T01:27:28.881Z,995.64
2022-11-09T01:28:28.849Z,995.66
2022-11-09T01:29:28.835Z,995.59
2022-11-09T01:30:28.858Z,995.57
2022-11-09T01:31:28.816Z,995.58
2022-11-09T01:32:28.805Z,995.61
2022-11-09T01:33:28.812Z,995.59
2022-11-09T01:34:28.781Z,995.63
2022-11-09T01:35:28.775Z,995.68
2022-11-09T01:36:28.772Z,995.65
2022-11-09T01:37:28.756Z,995.65
2022-11-09T01:38:28.743Z,995.6
2022-11-09T01:39:28.731Z,995.57
2022-11-09T01:40:28.724Z,995.53
2022-11-09T01:41:28.708Z,995.59
2022-11-09T01:42:28.704Z,995.48
2022-11-09T01:43:28.697Z,995.49
2022-11-09T01:44:28.727Z,995.48
2022-11-09T01:45:28.668Z,995.52
2022-11-09T01:46:28.662Z,995.49
2022-11-09T01:47:28.647Z,995.48
2022-11-09T01:48:28.637Z,995.49
2022-11-09T01:49:28.630Z,995.52
2022-11-09T01:50:28.647Z,995.49
2022-11-09T01:51:28.668Z,995.51
2022-11-09T01:52:28.599Z,995.47
2022-11-09T01:53:28.592Z,995.48
2022-11-09T01:54:28.578Z,995.45
2022-11-09T01:55:28.586Z,995.46
2022-11-09T01:56:28.558Z,995.41
2022-11-09T01:57:28.547Z,995.42
2022-11-09T01:58:28.535Z,995.41
2022-11-09T01:59:28.527Z,995.42
2022-11-09T02:00:28.516Z,995.36
2022-11-09T02:01:28.505Z,995.3
2022-11-09T02:02:28.496Z,995.35
2022-11-09T02:03:28.491Z,995.36
2022-11-09T02:04:28.486Z,995.3
2022-11-09T02:05:28.465Z,995.33
2022-11-09T02:06:28.471Z,995.39
2022-11-09T02:07:28.449Z,995.4
2022-11-09T02:08:28.431Z,995.45
2022-11-09T02:09:28.420Z,995.43
2022-11-09T02:10:28.412Z,995.37
2022-11-09T02:11:28.408Z,995.39
2022-11-09T02:12:28.390Z,995.34
2022-11-09T02:13:28.403Z,995.37
2022-11-09T02:14:28.373Z,995.33
2022-11-09T02:15:28.373Z,995.33
2022-11-09T02:16:28.353Z,995.31
2022-11-09T02:17:28.338Z,995.31
2022-11-09T02:18:28.328Z,995.3
2022-11-09T02:19:28.320Z,995.26
2022-11-09T02:20:28.312Z,995.23
2022-11-09T02:21:28.298Z,995.26
2022-11-09T02:22:28.286Z,995.24
2022-11-09T02:23:28.276Z,995.28
2022-11-09T02:24:28.268Z,995.25
2022-11-09T02:25:28.259Z,995.24
2022-11-09T02:26:28.251Z,995.28
2022-11-09T02:27:28.336Z,995.27
2022-11-09T02:28:28.233Z,995.3
2022-11-09T02:29:28.219Z,995.23
2022-11-09T02:30:28.211Z,995.27
2022-11-09T02:31:28.192Z,995.22
2022-11-09T02:32:28.188Z,995.23
2022-11-09T02:33:28.180Z,995.26
2022-11-09T02:34:28.162Z,995.27
2022-11-09T02:35:28.155Z,995.27
2022-11-09T02:36:28.147Z,995.26
2022-11-09T02:37:28.135Z,995.19
2022-11-09T02:38:28.119Z,995.32
2022-11-09T02:39:28.117Z,995.29
2022-11-09T02:40:28.099Z,995.28
2022-11-09T02:41:28.091Z,995.19
2022-11-09T02:42:28.084Z,995.24
2022-11-09T02:43:28.070Z,995.19
2022-11-09T02:44:28.060Z,995.22
2022-11-09T02:45:28.052Z,995.22
2022-11-09T02:46:28.041Z,995.26
2022-11-09T02:47:28.029Z,995.19
2022-11-09T02:48:28.022Z,995.26
2022-11-09T02:49:28.016Z,995.16
2022-11-09T02:50:27.999Z,995.11
2022-11-09T02:51:27.991Z,995.13
2022-11-09T02:52:27.983Z,995.15
2022-11-09T02:53:27.971Z,995.13
2022-11-09T02:54:27.965Z,995.2
2022-11-09T02:55:27.958Z,995.1
2022-11-09T02:56:27.943Z,995.18
2022-11-09T02:57:27.931Z,995.19
2022-11-09T02:58:27.958Z,995.11
2022-11-09T02:59:27.953Z,995.17
2022-11-09T03:00:27.898Z,995.13
2022-11-09T03:01:27.887Z,995.16
2022-11-09T03:02:27.889Z,995.16
2022-11-09T03:03:27.865Z,995.14
2022-11-09T03:04:27.854Z,995.21
2022-11-09T03:05:27.845Z,995.12
2022-11-09T03:06:27.850Z,995.21
2022-11-09T03:07:27.829Z,995.26
2022-11-09T03:08:27.815Z,995.26
2022-11-09T03:09:27.799Z,995.26
2022-11-09T03:10:27.792Z,995.27
2022-11-09T03:11:27.783Z,995.33
2022-11-09T03:12:27.771Z,995.27
2022-11-09T03:13:27.792Z,995.25
2022-11-09T03:14:27.750Z,995.25
2022-11-09T03:15:27.736Z,995.29
2022-11-09T03:16:27.740Z,995.27
2022-11-09T03:17:27.720Z,995.24
2022-11-09T03:18:27.724Z,995.25
2022-11-09T03:19:27.710Z,995.34
2022-11-09T03:20:27.691Z,995.34
2022-11-09T03:21:27.678Z,995.21
2022-11-09T03:22:27.663Z,995.27
2022-11-09T03:23:27.656Z,995.24
2022-11-09T03:24:27.646Z,995.28
2022-11-09T03:25:27.634Z,995.29
2022-11-09T03:26:27.640Z,995.27
2022-11-09T03:27:27.611Z,995.27
2022-11-09T03:28:27.605Z,995.33
2022-11-09T03:29:27.592Z,995.36
2022-11-09T03:30:27.591Z,995.37
2022-11-09T03:31:27.571Z,995.41
2022-11-09T03:32:27.561Z,995.38
2022-11-09T03:33:27.555Z,995.39
2022-11-09T03:34:27.541Z,995.31
2022-11-09T03:35:27.533Z,995.31
2022-11-09T03:36:27.548Z,995.32
2022-11-09T03:37:27.509Z,995.32
2022-11-09T03:38:27.524Z,995.33
2022-11-09T03:39:27.488Z,995.37
2022-11-09T03:40:27.481Z,995.32
2022-11-09T03:41:27.467Z,995.36
2022-11-09T03:42:27.463Z,995.43
2022-11-09T03:43:27.446Z,995.49
2022-11-09T03:44:27.441Z,995.41
2022-11-09T03:45:27.432Z,995.39
2022-11-09T03:46:27.417Z,995.41
2022-11-09T03:47:27.408Z,995.44
2022-11-09T03:48:27.399Z,995.44
2022-11-09T03:49:27.387Z,995.42
2022-11-09T03:50:27.375Z,995.46
2022-11-09T03:51:27.367Z,995.47
2022-11-09T03:52:27.352Z,995.46
2022-11-09T03:53:27.342Z,995.44
2022-11-09T03:54:27.339Z,995.49
2022-11-09T03:55:27.327Z,995.46
2022-11-09T03:56:27.310Z,995.46
2022-11-09T03:57:27.303Z,995.41
2022-11-09T03:58:27.290Z,995.46
2022-11-09T03:59:27.280Z,995.47
2022-11-09T04:00:27.277Z,995.51
2022-11-09T04:01:27.277Z,995.49
2022-11-09T04:02:27.249Z,995.5
2022-11-09T04:03:27.236Z,995.52
2022-11-09T04:04:27.248Z,995.55
2022-11-09T04:05:27.218Z,995.6
2022-11-09T04:06:27.205Z,995.58
2022-11-09T04:07:27.193Z,995.63
2022-11-09T04:08:27.187Z,995.57
2022-11-09T04:09:27.188Z,995.54
2022-11-09T04:10:27.164Z,995.5
2022-11-09T04:11:27.153Z,995.54
2022-11-09T04:12:27.152Z,995.52
2022-11-09T04:13:27.141Z,995.5
2022-11-09T04:14:27.125Z,995.48
2022-11-09T04:15:27.112Z,995.53
2022-11-09T04:16:27.102Z,995.58
2022-11-09T04:17:27.090Z,995.58
2022-11-09T04:18:27.080Z,995.57
2022-11-09T04:19:27.073Z,995.56
2022-11-09T04:20:27.061Z,995.45
2022-11-09T04:21:27.053Z,995.42
2022-11-09T04:22:27.038Z,995.44
2022-11-09T04:23:27.029Z,995.4
2022-11-09T04:24:27.039Z,995.46
2022-11-09T04:25:27.005Z,995.44
2022-11-09T04:26:27.003Z,995.49
2022-11-09T04:27:27.000Z,995.5
2022-11-09T04:28:26.982Z,995.46
2022-11-09T04:29:26.992Z,995.45
2022-11-09T04:30:26.975Z,995.43
2022-11-09T04:31:26.964Z,995.46
2022-11-09T04:32:26.934Z,995.45
2022-11-09T04:33:26.928Z,995.38
2022-11-09T04:34:26.915Z,995.45
2022-11-09T04:35:26.903Z,995.45
2022-11-09T04:36:26.892Z,995.47
2022-11-09T04:37:26.881Z,995.5
2022-11-09T04:38:26.899Z,995.47
2022-11-09T04:39:26.878Z,995.46
2022-11-09T04:40:26.854Z,995.39
2022-11-09T04:41:26.860Z,995.43
2022-11-09T04:42:26.830Z,995.47
2022-11-09T04:43:26.823Z,995.45
2022-11-09T04:44:26.812Z,995.5
2022-11-09T04:45:26.821Z,995.54
2022-11-09T04:46:26.802Z,995.54
2022-11-09T04:47:26.792Z,995.54
2022-11-09T04:48:26.799Z,995.53
2022-11-09T04:49:26.774Z,995.56
2022-11-09T04:50:26.744Z,995.5
2022-11-09T04:51:26.735Z,995.53
2022-11-09T04:52:26.731Z,995.49
2022-11-09T04:53:26.785Z,995.51
2022-11-09T04:54:26.707Z,995.56
2022-11-09T04:55:26.698Z,995.48
2022-11-09T04:56:26.686Z,995.52
2022-11-09T04:57:26.679Z,995.51
2022-11-09T04:58:26.664Z,995.56
2022-11-09T04:59:26.652Z,995.55
2022-11-09T05:00:26.642Z,995.57
2022-11-09T05:01:26.647Z,995.56
2022-11-09T05:02:26.630Z,995.69
2022-11-09T05:03:26.619Z,995.66
2022-11-09T05:04:26.604Z,995.66
2022-11-09T05:05:26.589Z,995.64
2022-11-09T05:06:26.582Z,995.68
2022-11-09T05:07:26.569Z,995.67
2022-11-09T05:08:26.563Z,995.71
2022-11-09T05:09:26.552Z,995.66
2022-11-09T05:10:26.542Z,995.6
2022-11-09T05:11:26.532Z,995.64
2022-11-09T05:12:26.523Z,995.66
2022-11-09T05:13:26.511Z,995.75
2022-11-09T05:14:26.499Z,995.66
2022-11-09T05:15:26.497Z,995.75
2022-11-09T05:16:26.478Z,995.68
2022-11-09T05:17:26.475Z,995.65
2022-11-09T05:18:26.457Z,995.69
2022-11-09T05:19:26.449Z,995.69
2022-11-09T05:20:26.434Z,995.63
2022-11-09T05:21:26.422Z,995.64
2022-11-09T05:22:26.415Z,995.64
2022-11-09T05:23:26.411Z,995.68
2022-11-09T05:24:26.395Z,995.63
2022-11-09T05:25:26.382Z,995.55
2022-11-09T05:26:26.371Z,995.54
2022-11-09T05:27:26.372Z,995.59
2022-11-09T05:28:26.353Z,995.59
2022-11-09T05:29:26.343Z,995.54
2022-11-09T05:30:26.331Z,995.58
2022-11-09T05:31:26.326Z,995.6
2022-11-09T05:32:26.315Z,995.62
2022-11-09T05:33:26.301Z,995.64
2022-11-09T05:34:26.289Z,995.67
2022-11-09T05:35:26.283Z,995.68
2022-11-09T05:36:26.271Z,995.65
2022-11-09T05:37:26.267Z,995.69
2022-11-09T05:38:26.251Z,995.63
2022-11-09T05:39:26.243Z,995.56
2022-11-09T05:40:26.243Z,995.61
2022-11-09T05:41:26.225Z,995.61
2022-11-09T05:42:26.211Z,995.55
2022-11-09T05:43:26.208Z,995.62
2022-11-09T05:44:26.191Z,995.49
2022-11-09T05:45:26.185Z,995.58
2022-11-09T05:46:26.167Z,995.47
2022-11-09T05:47:26.155Z,995.57
2022-11-09T05:48:26.149Z,995.57
2022-11-09T05:49:26.137Z,995.52
2022-11-09T05:50:26.142Z,995.46
2022-11-09T05:51:26.117Z,995.54
2022-11-09T05:52:26.106Z,995.5
2022-11-09T05:53:26.101Z,995.48
2022-11-09T05:54:26.085Z,995.52
2022-11-09T05:55:26.077Z,995.51
2022-11-09T05:56:26.064Z,995.51
2022-11-09T05:57:26.056Z,995.54
2022-11-09T05:58:26.058Z,995.59
2022-11-09T05:59:26.031Z,995.55
2022-11-09T06:00:26.020Z,995.55
2022-11-09T06:01:26.016Z,995.58
2022-11-09T06:02:26.054Z,995.56
2022-11-09T06:03:25.993Z,995.59
2022-11-09T06:04:25.984Z,995.6
2022-11-09T06:05:25.974Z,995.56
2022-11-09T06:06:25.959Z,995.52
2022-11-09T06:07:25.952Z,995.54
2022-11-09T06:08:25.940Z,995.52
2022-11-09T06:09:25.929Z,995.54
2022-11-09T06:10:25.917Z,995.45
2022-11-09T06:11:25.911Z,995.51
2022-11-09T06:12:25.904Z,995.55
2022-11-09T06:13:25.886Z,995.52
2022-11-09T06:14:25.882Z,995.6
2022-11-09T06:15:25.876Z,995.67
2022-11-09T06:16:25.855Z,995.61
2022-11-09T06:17:25.847Z,995.6
2022-11-09T06:18:25.839Z,995.62
2022-11-09T06:19:25.826Z,995.62
2022-11-09T06:20:25.821Z,995.6
2022-11-09T06:21:25.808Z,995.68
2022-11-09T06:22:25.798Z,995.7
2022-11-09T06:23:25.785Z,995.61
2022-11-09T06:24:25.779Z,995.62
2022-11-09T06:25:25.764Z,995.67
2022-11-09T06:26:25.753Z,995.7
2022-11-09T06:27:25.746Z,995.67
2022-11-09T06:28:25.744Z,995.63
2022-11-09T06:29:25.725Z,995.73
2022-11-09T06:30:25.721Z,995.71
2022-11-09T06:31:25.702Z,995.74
2022-11-09T06:32:25.692Z,995.73
2022-11-09T06:33:25.680Z,995.79
2022-11-09T06:34:25.685Z,995.79
2022-11-09T06:35:25.665Z,995.8
2022-11-09T06:36:25.655Z,995.79
2022-11-09T06:37:25.640Z,995.83
2022-11-09T06:38:25.633Z,995.83
2022-11-09T06:39:25.621Z,995.82
2022-11-09T06:40:25.616Z,995.85
2022-11-09T06:41:25.612Z,995.84
2022-11-09T06:42:25.590Z,995.88
2022-11-09T06:43:25.576Z,995.96
2022-11-09T06:44:25.567Z,995.9
2022-11-09T06:45:25.566Z,995.91
2022-11-09T06:46:25.553Z,995.91
2022-11-09T06:47:25.542Z,995.85
2022-11-09T06:48:25.528Z,995.88
2022-11-09T06:49:25.518Z,995.88
2022-11-09T06:50:25.506Z,995.96
2022-11-09T06:51:25.499Z,995.94
2022-11-09T06:52:25.485Z,995.93
2022-11-09T06:53:25.476Z,995.97
2022-11-09T06:54:25.468Z,995.93
2022-11-09T06:55:25.475Z,995.93
2022-11-09T06:56:25.452Z,995.95
2022-11-09T06:57:25.459Z,996.04
2022-11-09T06:58:25.421Z,996.06
2022-11-09T06:59:25.422Z,996.01
2022-11-09T07:00:25.406Z,996.04
2022-11-09T07:01:25.395Z,996.03
2022-11-09T07:02:25.391Z,996.09
2022-11-09T07:03:25.386Z,996.02
2022-11-09T07:04:25.363Z,996.04
2022-11-09T07:05:25.355Z,996.09
2022-11-09T07:06:25.343Z,996.13
2022-11-09T07:07:25.374Z,996.04
2022-11-09T07:08:25.323Z,996.08
2022-11-09T07:09:25.309Z,996.08
2022-11-09T07:10:25.298Z,996.11
2022-11-09T07:11:26.308Z,996.15
2022-11-09T07:12:25.278Z,996.17
2022-11-09T07:13:25.267Z,996.13
2022-11-09T07:14:25.259Z,996.16
2022-11-09T07:15:25.271Z,996.13
2022-11-09T07:16:25.238Z,996.16
2022-11-09T07:17:25.229Z,996.18
2022-11-09T07:18:25.218Z,996.19
2022-11-09T07:19:25.203Z,996.13
2022-11-09T07:20:25.210Z,996.08
2022-11-09T07:21:25.189Z,996.17
2022-11-09T07:22:25.172Z,996.12
2022-11-09T07:23:25.163Z,996.16
2022-11-09T07:24:25.151Z,996.23
2022-11-09T07:25:25.171Z,996.18
2022-11-09T07:26:25.135Z,996.24
2022-11-09T07:27:25.123Z,996.24
2022-11-09T07:28:25.119Z,996.19
2022-11-09T07:29:25.108Z,996.18
2022-11-09T07:30:25.115Z,996.17
2022-11-09T07:31:25.083Z,996.19
2022-11-09T07:32:25.125Z,996.24
2022-11-09T07:33:25.060Z,996.2
2022-11-09T07:34:25.067Z,996.14
2022-11-09T07:35:25.041Z,996.17
2022-11-09T07:36:25.030Z,996.21
2022-11-09T07:37:25.021Z,996.13
2022-11-09T07:38:25.013Z,996.19
2022-11-09T07:39:25.007Z,996.19
2022-11-09T07:40:24.996Z,996.2
2022-11-09T07:41:25.004Z,996.22
2022-11-09T07:42:24.974Z,996.21
2022-11-09T07:43:24.960Z,996.25
2022-11-09T07:44:24.976Z,996.16
2022-11-09T07:45:24.946Z,996.27
2022-11-09T07:46:24.930Z,996.27
2022-11-09T07:47:24.928Z,996.21
2022-11-09T07:48:24.905Z,996.29
2022-11-09T07:49:24.903Z,996.28
2022-11-09T07:50:24.925Z,996.31
2022-11-09T07:51:24.923Z,996.31
2022-11-09T07:52:24.869Z,996.28
2022-11-09T07:53:24.885Z,996.33
2022-11-09T07:54:24.842Z,996.32
2022-11-09T07:55:24.832Z,996.31
2022-11-09T07:56:24.828Z,996.31
2022-11-09T07:57:24.841Z,996.29
2022-11-09T07:58:24.807Z,996.27
2022-11-09T07:59:24.806Z,996.26
2022-11-09T08:00:24.796Z,996.3
2022-11-09T08:01:24.773Z,996.29
2022-11-09T08:02:24.793Z,996.36
2022-11-09T08:03:24.751Z,996.26
2022-11-09T08:04:24.743Z,996.29
2022-11-09T08:05:24.725Z,996.3
2022-11-09T08:06:24.720Z,996.3
2022-11-09T08:07:24.709Z,996.32
2022-11-09T08:08:24.708Z,996.35
2022-11-09T08:09:24.691Z,996.38
2022-11-09T08:10:24.683Z,996.36
2022-11-09T08:11:24.665Z,996.33
2022-11-09T08:12:24.656Z,996.34
2022-11-09T08:13:24.649Z,996.35
2022-11-09T08:14:24.672Z,996.29
2022-11-09T08:15:24.622Z,996.36
2022-11-09T08:16:24.637Z,996.34
2022-11-09T08:17:24.605Z,996.34
2022-11-09T08:18:24.593Z,996.26
2022-11-09T08:19:24.586Z,996.33
2022-11-09T08:20:24.588Z,996.35
2022-11-09T08:21:24.562Z,996.37
2022-11-09T08:22:24.551Z,996.38
2022-11-09T08:23:24.541Z,996.43
2022-11-09T08:24:24.532Z,996.42
2022-11-09T08:25:24.541Z,996.44
2022-11-09T08:26:24.524Z,996.47
2022-11-09T08:27:24.531Z,996.4
2022-11-09T08:28:24.545Z,996.42
2022-11-09T08:29:24.482Z,996.39
2022-11-09T08:30:24.471Z,996.43
2022-11-09T08:31:24.461Z,996.37
2022-11-09T08:32:24.452Z,996.37
2022-11-09T08:33:24.439Z,996.43
2022-11-09T08:34:24.431Z,996.41
2022-11-09T08:35:24.419Z,996.44
2022-11-09T08:36:24.409Z,996.41
2022-11-09T08:37:24.408Z,996.45
2022-11-09T08:38:24.389Z,996.38
2022-11-09T08:39:24.381Z,996.47
2022-11-09T08:40:24.415Z,996.49
2022-11-09T08:41:24.356Z,996.5
2022-11-09T08:42:24.348Z,996.53
2022-11-09T08:43:24.337Z,996.51
2022-11-09T08:44:24.322Z,996.58
2022-11-09T08:45:24.332Z,996.61
2022-11-09T08:46:24.313Z,996.63
2022-11-09T08:53:50.891Z,996.63
2022-11-09T08:54:50.839Z,996.63
2022-11-09T08:55:50.830Z,996.63
2022-11-09T08:56:50.818Z,996.59
2022-11-09T08:57:50.804Z,996.65
2022-11-09T08:58:50.793Z,996.66
2022-11-09T08:59:50.787Z,996.72
2022-11-09T09:00:50.773Z,996.65
2022-11-09T09:01:50.837Z,996.67
2022-11-09T09:02:50.787Z,996.73
2022-11-09T09:03:50.749Z,996.75
2022-11-09T09:04:50.728Z,996.73
2022-11-09T09:05:50.717Z,996.73
2022-11-09T09:06:50.709Z,996.72
2022-11-09T09:07:50.696Z,996.63
2022-11-09T09:08:50.704Z,996.61
2022-11-09T09:09:50.679Z,996.65
2022-11-09T09:10:50.681Z,996.6
2022-11-09T09:11:50.653Z,996.59
2022-11-09T09:12:50.642Z,996.61
2022-11-09T09:13:50.629Z,996.65
2022-11-09T09:14:50.620Z,996.67
2022-11-09T09:15:50.605Z,996.65
2022-11-09T09:16:50.599Z,996.73
2022-11-09T09:17:50.605Z,996.7
2022-11-09T09:18:50.573Z,996.64
2022-11-09T09:19:50.560Z,996.66
2022-11-09T09:20:50.600Z,996.6
2022-11-09T09:21:50.543Z,996.66
2022-11-09T09:22:50.528Z,996.71
2022-11-09T09:23:50.519Z,996.75
2022-11-09T09:24:50.530Z,996.76
2022-11-09T09:25:50.547Z,996.78
2022-11-09T09:26:50.486Z,996.75
2022-11-09T09:27:50.475Z,996.73
2022-11-09T09:28:50.467Z,996.75
2022-11-09T09:29:50.466Z,996.8
2022-11-09T09:30:50.457Z,996.82
2022-11-09T09:31:50.442Z,996.86
2022-11-09T09:32:50.521Z,996.87
2022-11-09T09:33:50.452Z,996.96
2022-11-09T09:34:50.429Z,996.93
2022-11-09T09:35:50.403Z,996.96
2022-11-09T09:36:50.417Z,996.96
2022-11-09T09:37:50.371Z,996.97
2022-11-09T09:38:50.359Z,996.98
2022-11-09T09:39:50.352Z,996.99
2022-11-09T09:40:50.339Z,996.94
2022-11-09T09:41:50.328Z,996.98
2022-11-09T09:42:50.320Z,997.02
2022-11-09T09:43:50.307Z,997.06
2022-11-09T09:44:50.302Z,996.98
2022-11-09T09:45:50.291Z,996.99
2022-11-09T09:46:50.342Z,996.86
2022-11-09T09:47:50.645Z,996.9
2022-11-09T09:48:50.257Z,996.89
2022-11-09T09:49:50.249Z,996.84
2022-11-09T09:50:50.234Z,996.91
2022-11-09T09:51:50.239Z,996.98
2022-11-09T09:52:50.221Z,996.93
2022-11-09T09:53:50.204Z,996.92
2022-11-09T09:54:50.197Z,996.87
2022-11-09T09:55:50.182Z,996.96
2022-11-09T09:56:50.179Z,996.93
2022-11-09T09:57:51.431Z,996.97
2022-11-09T09:58:50.160Z,996.97
2022-11-09T09:59:50.146Z,997
2022-11-09T10:00:50.130Z,996.99
2022-11-09T10:01:50.120Z,997.02
2022-11-09T10:02:50.121Z,996.95
2022-11-09T10:03:50.126Z,996.96
2022-11-09T10:04:50.117Z,996.95
2022-11-09T10:05:50.072Z,997.01
2022-11-09T10:06:50.226Z,996.99
2022-11-09T10:07:50.082Z,997.06
2022-11-09T10:08:50.038Z,997.01
2022-11-09T10:09:50.032Z,997.04
2022-11-09T10:10:50.017Z,996.98
2022-11-09T10:11:50.158Z,997.03
2022-11-09T10:12:51.024Z,997.02
2022-11-09T10:13:49.986Z,997.04
2022-11-09T10:14:49.991Z,997.03
2022-11-09T10:15:49.970Z,996.95
2022-11-09T10:16:49.949Z,996.99
2022-11-09T10:17:49.966Z,996.91
2022-11-09T10:18:50.004Z,996.95
2022-11-09T10:19:49.924Z,996.95
2022-11-09T10:20:49.927Z,996.99
2022-11-09T10:21:49.899Z,996.92
2022-11-09T10:22:49.882Z,996.97
2022-11-09T10:23:49.886Z,997.02
2022-11-09T10:24:49.882Z,997.01
2022-11-09T10:25:49.851Z,996.97
2022-11-09T10:26:49.844Z,996.92
2022-11-09T10:27:49.845Z,996.95
2022-11-09T10:28:49.869Z,997.03
2022-11-09T10:29:49.844Z,997.02
2022-11-09T10:30:49.801Z,996.95
2022-11-09T10:31:49.791Z,997.03
2022-11-09T10:32:49.782Z,996.89
2022-11-09T10:33:49.771Z,997.01
2022-11-09T10:34:49.756Z,996.98
2022-11-09T10:35:49.744Z,996.96
2022-11-09T10:36:49.733Z,996.96
2022-11-09T10:37:49.723Z,996.93
2022-11-09T10:38:49.718Z,996.97
2022-11-09T10:39:49.698Z,996.92
2022-11-09T10:40:49.697Z,996.88
2022-11-09T10:41:49.709Z,996.91
2022-11-09T10:42:49.670Z,996.83
2022-11-09T10:43:49.663Z,996.84
2022-11-09T10:44:49.652Z,996.78
2022-11-09T10:45:49.636Z,996.85
2022-11-09T10:46:49.627Z,996.82
2022-11-09T10:47:49.625Z,996.81
2022-11-09T10:48:49.605Z,996.79
2022-11-09T10:49:49.591Z,996.77
2022-11-09T10:50:49.583Z,996.84
2022-11-09T10:51:49.578Z,996.79
2022-11-09T10:52:49.564Z,996.74
2022-11-09T10:53:49.546Z,996.73
2022-11-09T10:54:49.555Z,996.71
2022-11-09T10:55:49.528Z,996.74
2022-11-09T10:56:49.515Z,996.78
2022-11-09T10:57:49.518Z,996.78
2022-11-09T10:58:49.502Z,996.76
2022-11-09T10:59:49.491Z,996.7
2022-11-09T11:00:49.486Z,996.71
2022-11-09T11:01:49.477Z,996.76
2022-11-09T11:02:49.454Z,996.77
2022-11-09T11:03:49.445Z,996.74
2022-11-09T11:04:49.433Z,996.75
2022-11-09T11:05:49.450Z,996.72
2022-11-09T11:06:49.413Z,996.71
2022-11-09T11:07:49.400Z,996.71
2022-11-09T11:08:49.389Z,996.83
2022-11-09T11:09:49.475Z,996.75
2022-11-09T11:10:49.389Z,996.66
2022-11-09T11:11:49.353Z,996.69
2022-11-09T11:12:49.353Z,996.68
2022-11-09T11:13:49.342Z,996.7
2022-11-09T11:14:49.391Z,996.68
2022-11-09T11:15:49.314Z,996.74
2022-11-09T11:16:49.307Z,996.7
2022-11-09T11:17:50.007Z,996.64
2022-11-09T11:18:49.283Z,996.67
2022-11-09T11:19:49.274Z,996.7
2022-11-09T11:20:49.263Z,996.71
2022-11-09T11:21:49.267Z,996.73
2022-11-09T11:22:49.249Z,996.73
2022-11-09T11:23:49.233Z,996.73
2022-11-09T11:24:49.227Z,996.74
2022-11-09T11:25:49.208Z,996.78
2022-11-09T11:26:49.200Z,996.78
2022-11-09T11:27:49.191Z,996.79
2022-11-09T11:28:49.173Z,996.7
2022-11-09T11:29:49.295Z,996.78
2022-11-09T11:30:49.180Z,996.78
2022-11-09T11:31:49.145Z,997
2022-11-09T11:32:49.131Z,996.78
2022-11-09T11:33:49.124Z,996.76
2022-11-09T11:34:49.115Z,996.79
2022-11-09T11:35:49.099Z,996.82
2022-11-09T11:36:49.097Z,996.69
2022-11-09T11:37:49.082Z,996.71
2022-11-09T11:38:49.064Z,996.74
2022-11-09T11:39:49.060Z,996.64
2022-11-09T11:40:49.045Z,996.73
2022-11-09T11:41:49.036Z,996.62
2022-11-09T11:42:49.034Z,996.73
2022-11-09T11:43:49.011Z,996.56
2022-11-09T11:44:49.003Z,996.52
2022-11-09T11:45:48.989Z,996.73
2022-11-09T11:46:48.984Z,996.69
2022-11-09T11:47:48.972Z,996.75
2022-11-09T11:48:48.972Z,996.73
2022-11-09T11:49:48.964Z,996.7
2022-11-09T11:50:48.934Z,996.66
2022-11-09T11:51:48.926Z,996.73
2022-11-09T11:52:48.916Z,996.65
2022-11-09T11:53:48.902Z,996.76
2022-11-09T11:54:48.898Z,996.82
2022-11-09T11:55:48.888Z,996.82
2022-11-09T11:56:48.877Z,996.66
2022-11-09T11:57:48.874Z,996.73
2022-11-09T11:58:48.852Z,996.75
2022-11-09T11:59:48.843Z,996.8
2022-11-09T12:00:48.843Z,996.79
2022-11-09T12:01:48.830Z,996.96
2022-11-09T12:02:48.836Z,996.84
2022-11-09T12:03:48.799Z,996.79
2022-11-09T12:04:48.810Z,996.81
2022-11-09T12:05:48.777Z,996.79
2022-11-09T12:06:48.764Z,996.81
2022-11-09T12:07:48.778Z,996.88
2022-11-09T12:08:48.778Z,996.83
2022-11-09T12:09:48.827Z,996.87
2022-11-09T12:10:49.719Z,996.95
2022-11-09T12:11:48.739Z,996.88
2022-11-09T12:12:48.700Z,996.98
2022-11-09T12:13:48.711Z,996.99
2022-11-09T12:14:48.686Z,996.97
2022-11-09T12:15:48.668Z,996.96
2022-11-09T12:16:48.691Z,996.83
2022-11-09T12:17:48.676Z,996.98
2022-11-09T12:18:48.638Z,997.27
2022-11-09T12:19:48.622Z,996.95
2022-11-09T12:20:48.617Z,996.79
2022-11-09T12:21:48.605Z,996.73
2022-11-09T12:22:48.595Z,996.82
2022-11-09T12:23:48.583Z,996.79
2022-11-09T12:24:48.569Z,996.79
2022-11-09T12:25:48.563Z,996.86
2022-11-09T12:26:48.564Z,996.82
2022-11-09T12:27:48.557Z,996.83
2022-11-09T12:28:48.526Z,996.92
2022-11-09T12:29:48.516Z,996.79
2022-11-09T12:30:48.510Z,996.84
2022-11-09T12:31:48.503Z,996.88
2022-11-09T12:32:48.487Z,996.82
2022-11-09T12:33:48.477Z,996.81
2022-11-09T12:34:48.460Z,996.75
2022-11-09T12:35:48.539Z,996.76
2022-11-09T12:36:48.869Z,996.85